Gunner — WDG9803 — position and weather

sailwx.info

Track history (hours):
 
Tides and Currents Weather Stations Pressure Air Temp Water Temp Dewpoint Dewpoint Depression Visibility Wind Speed Wind Dir Waves Ship Positions

Gunner

Owner: M/V Gunner, LLC, Broussard, LA. More information available from US FCC via Universal Licensing System and Coast Guard Vessel Documentation Center.

Last reported at 2018-Jul-11 20:09 UTC. Time now 2018-Jul-21 08:01 UTC.
Position N 29°34' W 090°30'.
Warning: this ship's position is 9 days out of date.

Length 22 m; draft 3 m.

Type: Towing. MMSI: 367591260.

Date/timePositionNaut miles runAvg speedWind from/ knotsBaromVisibWave heightAir tempDewpointWater temp
2018-Jul-11 20:09N 29°34' W 090°30'1 4.8
2018-Jul-11 19:58N 29°34' W 090°31'1 1.5
2018-Jul-11 19:30N 29°34' W 090°32'2 4.7
2018-Jul-11 19:00N 29°34' W 090°34'3 5.1
2018-Jul-11 18:30N 29°35' W 090°37'2 4.1
2018-Jul-11 18:00N 29°36' W 090°39'1 1.1
2018-Jul-11 17:28N 29°36' W 090°40'2 4.8
2018-Jul-11 17:00N 29°37' W 090°42'3 5.6
2018-Jul-11 16:30N 29°34' W 090°43'1 2.9
2018-Jul-11 16:00N 29°34' W 090°45'1 2.3
2018-Jul-11 15:30N 29°33' W 090°46'0 0.1
2018-Jul-11 15:00N 29°33' W 090°46'0 0.0
2018-Jul-11 14:30N 29°33' W 090°46'0 0.0
2018-Jul-11 14:00N 29°33' W 090°46'0 0.0
2018-Jul-11 13:30N 29°33' W 090°46'0 0.0
2018-Jul-11 13:00N 29°33' W 090°46'0 0.0
2018-Jul-11 12:28N 29°33' W 090°46'0 0.0
2018-Jul-11 12:00N 29°33' W 090°46'0 0.0
2018-Jul-11 11:30N 29°33' W 090°46'2 3.3
2018-Jul-11 11:00N 29°32' W 090°47'4 5.1
2018-Jul-11 10:11N 29°32' W 090°52'1 5.1
2018-Jul-11 09:54N 29°33' W 090°54'58 3.1
2018-Jul-10 15:03N 29°50' W 091°57'0 5.2
2018-Jul-10 14:59N 29°50' W 091°58'3 5.3
2018-Jul-10 14:30N 29°50' W 092°00'2 3.2
2018-Jul-10 14:00N 29°49' W 092°02'0 0.0
2018-Jul-10 13:30N 29°49' W 092°02'2 3.0
2018-Jul-10 13:00N 29°49' W 092°04'3 5.3
2018-Jul-10 12:30N 29°48' W 092°07'3 5.0
2018-Jul-10 12:00N 29°47' W 092°09'2 4.4
2018-Jul-10 11:30N 29°47' W 092°12'1 2.3
2018-Jul-10 11:00N 29°47' W 092°13'2 4.9
2018-Jul-10 10:30N 29°48' W 092°16'2 4.3
2018-Jul-10 10:00N 29°50' W 092°18'3 4.8
2018-Jul-10 09:29N 29°51' W 092°20'  
2018-Jul-06 23:30N 29°53' W 092°25'3 3.0
2018-Jul-06 22:23N 29°51' W 092°22'1 3.2
2018-Jul-06 22:00N 29°51' W 092°20'2 3.1
2018-Jul-06 21:30N 29°50' W 092°19'0 0.0
2018-Jul-06 21:00N 29°50' W 092°19'0 0.4
2018-Jul-06 20:30N 29°50' W 092°19'1 2.0
2018-Jul-06 20:00N 29°50' W 092°18'1 2.5
2018-Jul-06 19:30N 29°49' W 092°17'2 3.4
2018-Jul-06 19:00N 29°48' W 092°15'2 3.8
2018-Jul-06 18:30N 29°47' W 092°13'1 1.4
2018-Jul-06 18:00N 29°47' W 092°12'1 1.7
2018-Jul-06 17:30N 29°47' W 092°11'0 0.2
2018-Jul-06 17:00N 29°47' W 092°11'0 0.3
2018-Jul-06 16:30N 29°47' W 092°11'0 0.4
2018-Jul-06 16:00N 29°47' W 092°11'1 2.3
2018-Jul-06 15:30N 29°47' W 092°09'2 3.7
2018-Jul-06 15:00N 29°47' W 092°07'2 3.1
2018-Jul-06 14:30N 29°48' W 092°06'2 3.6
2018-Jul-06 14:00N 29°49' W 092°04'2 3.7
2018-Jul-06 13:30N 29°49' W 092°02'2 3.9
2018-Jul-06 13:00N 29°50' W 091°60'4 3.8
2018-Jul-06 11:57N 29°51' W 091°55'60 2.9
2018-Jul-05 15:33N 29°32' W 090°50'0 4.2
2018-Jul-05 15:30N 29°32' W 090°50'2 4.0
2018-Jul-05 15:00N 29°32' W 090°47'2 3.4
2018-Jul-05 14:30N 29°33' W 090°46'3 3.0
2018-Jul-05 13:30N 29°35' W 090°43'1 2.8
2018-Jul-05 13:00N 29°36' W 090°43'1 2.2
2018-Jul-05 12:30N 29°37' W 090°42'1 2.6
2018-Jul-05 12:00N 29°36' W 090°40'0 0.4
2018-Jul-05 11:30N 29°36' W 090°40'0 0.0
2018-Jul-05 11:00N 29°36' W 090°40'0 0.0
2018-Jul-05 10:30N 29°36' W 090°40'0 0.0
2018-Jul-05 10:00N 29°36' W 090°40'0 0.0
2018-Jul-05 09:30N 29°36' W 090°40'0 0.0
2018-Jul-05 09:00N 29°36' W 090°40'0 0.0
2018-Jul-05 08:30N 29°36' W 090°40'0 0.0
2018-Jul-05 08:00N 29°36' W 090°40'0 0.0
2018-Jul-05 07:30N 29°36' W 090°40'0 0.0
2018-Jul-05 07:00N 29°36' W 090°40'0 0.6
2018-Jul-05 06:30N 29°36' W 090°40'0 0.6
2018-Jul-05 06:00N 29°36' W 090°40'0 0.0
2018-Jul-05 05:30N 29°36' W 090°40'0 0.0
2018-Jul-05 05:00N 29°36' W 090°40'0 0.0
2018-Jul-05 04:30N 29°36' W 090°40'0 0.0
2018-Jul-05 04:00N 29°36' W 090°40'0 0.0
2018-Jul-05 03:30N 29°36' W 090°40'0 0.0
2018-Jul-05 03:00N 29°36' W 090°40'0 0.0
2018-Jul-05 02:30N 29°36' W 090°40'0 0.0
2018-Jul-05 02:00N 29°36' W 090°40'0 0.0
2018-Jul-05 01:30N 29°36' W 090°40'0 0.1
2018-Jul-05 01:00N 29°36' W 090°40'0 0.1
2018-Jul-05 00:30N 29°36' W 090°40'0 0.1
2018-Jul-05 00:00N 29°36' W 090°40'0 0.1
2018-Jul-04 23:30N 29°36' W 090°40'0 0.0
2018-Jul-04 23:00N 29°36' W 090°40'0 0.3
2018-Jul-04 22:30N 29°36' W 090°40'0 0.3
2018-Jul-04 22:00N 29°36' W 090°40'0 0.0
2018-Jul-04 21:30N 29°36' W 090°40'0 0.0
2018-Jul-04 21:00N 29°36' W 090°40'1 1.2
2018-Jul-04 20:30N 29°36' W 090°39'1 2.5
2018-Jul-04 20:00N 29°35' W 090°38'2 3.3
2018-Jul-04 19:30N 29°35' W 090°36'2 3.2
2018-Jul-04 19:00N 29°34' W 090°35'2 3.3
2018-Jul-04 18:30N 29°34' W 090°33'2 3.5
2018-Jul-04 18:00N 29°34' W 090°31'  
Track history (hours):
 
Tides and Currents Weather Stations Pressure Air Temp Water Temp Dewpoint Dewpoint Depression Visibility Wind Speed Wind Dir Waves Ship Positions

Gunner

Owner: M/V Gunner, LLC, Broussard, LA. More information available from US FCC via Universal Licensing System and Coast Guard Vessel Documentation Center.

Last reported at 2018-Jul-11 20:09 UTC. Time now 2018-Jul-21 08:01 UTC.
Position N 29°34' W 090°30'.
Warning: this ship's position is 9 days out of date.

Length 22 m; draft 3 m.

Type: Towing. MMSI: 367591260.

Date/timePositionNaut miles runAvg speedWind from/ knotsBaromVisibWave heightAir tempDewpointWater temp
2018-Jul-11 20:09N 29°34' W 090°30'1 4.8
2018-Jul-11 19:58N 29°34' W 090°31'1 1.5
2018-Jul-11 19:30N 29°34' W 090°32'2 4.7
2018-Jul-11 19:00N 29°34' W 090°34'3 5.1
2018-Jul-11 18:30N 29°35' W 090°37'2 4.1
2018-Jul-11 18:00N 29°36' W 090°39'1 1.1
2018-Jul-11 17:28N 29°36' W 090°40'2 4.8
2018-Jul-11 17:00N 29°37' W 090°42'3 5.6
2018-Jul-11 16:30N 29°34' W 090°43'1 2.9
2018-Jul-11 16:00N 29°34' W 090°45'1 2.3
2018-Jul-11 15:30N 29°33' W 090°46'0 0.1
2018-Jul-11 15:00N 29°33' W 090°46'0 0.0
2018-Jul-11 14:30N 29°33' W 090°46'0 0.0
2018-Jul-11 14:00N 29°33' W 090°46'0 0.0
2018-Jul-11 13:30N 29°33' W 090°46'0 0.0
2018-Jul-11 13:00N 29°33' W 090°46'0 0.0
2018-Jul-11 12:28N 29°33' W 090°46'0 0.0
2018-Jul-11 12:00N 29°33' W 090°46'0 0.0
2018-Jul-11 11:30N 29°33' W 090°46'2 3.3
2018-Jul-11 11:00N 29°32' W 090°47'4 5.1
2018-Jul-11 10:11N 29°32' W 090°52'1 5.1
2018-Jul-11 09:54N 29°33' W 090°54'58 3.1
2018-Jul-10 15:03N 29°50' W 091°57'0 5.2
2018-Jul-10 14:59N 29°50' W 091°58'3 5.3
2018-Jul-10 14:30N 29°50' W 092°00'2 3.2
2018-Jul-10 14:00N 29°49' W 092°02'0 0.0
2018-Jul-10 13:30N 29°49' W 092°02'2 3.0
2018-Jul-10 13:00N 29°49' W 092°04'3 5.3
2018-Jul-10 12:30N 29°48' W 092°07'3 5.0
2018-Jul-10 12:00N 29°47' W 092°09'2 4.4
2018-Jul-10 11:30N 29°47' W 092°12'1 2.3
2018-Jul-10 11:00N 29°47' W 092°13'2 4.9
2018-Jul-10 10:30N 29°48' W 092°16'2 4.3
2018-Jul-10 10:00N 29°50' W 092°18'3 4.8
2018-Jul-10 09:29N 29°51' W 092°20'  
2018-Jul-06 23:30N 29°53' W 092°25'3 3.0
2018-Jul-06 22:23N 29°51' W 092°22'1 3.2
2018-Jul-06 22:00N 29°51' W 092°20'2 3.1
2018-Jul-06 21:30N 29°50' W 092°19'0 0.0
2018-Jul-06 21:00N 29°50' W 092°19'0 0.4
2018-Jul-06 20:30N 29°50' W 092°19'1 2.0
2018-Jul-06 20:00N 29°50' W 092°18'1 2.5
2018-Jul-06 19:30N 29°49' W 092°17'2 3.4
2018-Jul-06 19:00N 29°48' W 092°15'2 3.8
2018-Jul-06 18:30N 29°47' W 092°13'1 1.4
2018-Jul-06 18:00N 29°47' W 092°12'1 1.7
2018-Jul-06 17:30N 29°47' W 092°11'0 0.2
2018-Jul-06 17:00N 29°47' W 092°11'0 0.3
2018-Jul-06 16:30N 29°47' W 092°11'0 0.4
2018-Jul-06 16:00N 29°47' W 092°11'1 2.3
2018-Jul-06 15:30N 29°47' W 092°09'2 3.7
2018-Jul-06 15:00N 29°47' W 092°07'2 3.1
2018-Jul-06 14:30N 29°48' W 092°06'2 3.6
2018-Jul-06 14:00N 29°49' W 092°04'2 3.7
2018-Jul-06 13:30N 29°49' W 092°02'2 3.9
2018-Jul-06 13:00N 29°50' W 091°60'4 3.8
2018-Jul-06 11:57N 29°51' W 091°55'60 2.9
2018-Jul-05 15:33N 29°32' W 090°50'0 4.2
2018-Jul-05 15:30N 29°32' W 090°50'2 4.0
2018-Jul-05 15:00N 29°32' W 090°47'2 3.4
2018-Jul-05 14:30N 29°33' W 090°46'3 3.0
2018-Jul-05 13:30N 29°35' W 090°43'1 2.8
2018-Jul-05 13:00N 29°36' W 090°43'1 2.2
2018-Jul-05 12:30N 29°37' W 090°42'1 2.6
2018-Jul-05 12:00N 29°36' W 090°40'0 0.4
2018-Jul-05 11:30N 29°36' W 090°40'0 0.0
2018-Jul-05 11:00N 29°36' W 090°40'0 0.0
2018-Jul-05 10:30N 29°36' W 090°40'0 0.0
2018-Jul-05 10:00N 29°36' W 090°40'0 0.0
2018-Jul-05 09:30N 29°36' W 090°40'0 0.0
2018-Jul-05 09:00N 29°36' W 090°40'0 0.0
2018-Jul-05 08:30N 29°36' W 090°40'0 0.0
2018-Jul-05 08:00N 29°36' W 090°40'0 0.0
2018-Jul-05 07:30N 29°36' W 090°40'0 0.0
2018-Jul-05 07:00N 29°36' W 090°40'0 0.6
2018-Jul-05 06:30N 29°36' W 090°40'0 0.6
2018-Jul-05 06:00N 29°36' W 090°40'0 0.0
2018-Jul-05 05:30N 29°36' W 090°40'0 0.0
2018-Jul-05 05:00N 29°36' W 090°40'0 0.0
2018-Jul-05 04:30N 29°36' W 090°40'0 0.0
2018-Jul-05 04:00N 29°36' W 090°40'0 0.0
2018-Jul-05 03:30N 29°36' W 090°40'0 0.0
2018-Jul-05 03:00N 29°36' W 090°40'0 0.0
2018-Jul-05 02:30N 29°36' W 090°40'0 0.0
2018-Jul-05 02:00N 29°36' W 090°40'0 0.0
2018-Jul-05 01:30N 29°36' W 090°40'0 0.1
2018-Jul-05 01:00N 29°36' W 090°40'0 0.1
2018-Jul-05 00:30N 29°36' W 090°40'0 0.1
2018-Jul-05 00:00N 29°36' W 090°40'0 0.1
2018-Jul-04 23:30N 29°36' W 090°40'0 0.0
2018-Jul-04 23:00N 29°36' W 090°40'0 0.3
2018-Jul-04 22:30N 29°36' W 090°40'0 0.3
2018-Jul-04 22:00N 29°36' W 090°40'0 0.0
2018-Jul-04 21:30N 29°36' W 090°40'0 0.0
2018-Jul-04 21:00N 29°36' W 090°40'1 1.2
2018-Jul-04 20:30N 29°36' W 090°39'1 2.5
2018-Jul-04 20:00N 29°35' W 090°38'2 3.3
2018-Jul-04 19:30N 29°35' W 090°36'2 3.2
2018-Jul-04 19:00N 29°34' W 090°35'2 3.3
2018-Jul-04 18:30N 29°34' W 090°33'2 3.5
2018-Jul-04 18:00N 29°34' W 090°31'  

Dump ship's entire track history